Terminal Aerodrome Forecast
Issued by NWS New Orleans/Baton Rouge, LA

Home | Current Version | Previous Version | Text Only | Print | Product List | Glossary On
Versions: 1 2 3 4 5 6 7 8 9 10 11 12 13 14 15
000
FTUS44 KLIX 031728
TAFNEW
TAF
KNEW 031728Z 0318/0418 10018G25KT P6SM OVC050
     FM040200 10014G22KT P6SM VCSH OVC030
     FM040400 10013G21KT P6SM SHRA OVC020
     FM040900 11009KT 6SM SHRA BR OVC008
     FM041700 19008KT 6SM SHRA BR OVC015=

USA.gov is the U.S. government's official web portal to all federal, state and local government web resources and services.